Time;durP1;ratioP1;P1;durP2;ratioP2;P2;SDS_P1;SDS_P2;PMS_P1;PMS_P2;Temp;Humidity;BMP_temperature;BMP_pressure;BME280_temperature;BME280_humidity;BME280_pressure;Samples;Min_cycle;Max_cycle;Signal;HPM_P1;HPM_P2
2021/04/30 00:01:33;;;;;;;4.37;3.87;;;13.30;27.80;;;;;;4900421;29;21142;-78
2021/04/30 00:04:00;;;;;;;3.60;3.30;;;13.30;26.80;;;;;;4904351;29;20474;-78
2021/04/30 00:06:27;;;;;;;4.93;3.47;;;13.40;27.90;;;;;;4901268;29;20552;-78
2021/04/30 00:08:57;;;;;;;4.40;3.00;;;13.40;28.60;;;;;;4907864;29;20533;-77
2021/04/30 00:11:25;;;;;;;4.00;3.60;;;13.40;27.00;;;;;;4907138;29;20475;-78
2021/04/30 00:13:52;;;;;;;3.83;3.53;;;13.40;27.60;;;;;;4899054;29;20556;-78
2021/04/30 00:16:19;;;;;;;4.23;3.93;;;13.40;26.80;;;;;;4904298;29;20474;-79
2021/04/30 00:18:46;;;;;;;3.93;3.73;;;13.40;27.10;;;;;;4895939;29;20498;-78
2021/04/30 00:21:14;;;;;;;3.87;3.57;;;13.40;26.90;;;;;;4909071;29;20939;-79
2021/04/30 00:23:41;;;;;;;4.87;4.47;;;13.30;26.40;;;;;;4906793;29;20468;-78
2021/04/30 00:26:09;;;;;;;4.07;3.77;;;13.30;27.30;;;;;;4904980;29;20539;-78
2021/04/30 00:28:37;;;;;;;3.93;3.63;;;13.30;25.60;;;;;;4899438;29;20482;-77
2021/04/30 00:31:04;;;;;;;4.47;4.10;;;13.40;25.30;;;;;;4899943;29;20457;-76
2021/04/30 00:33:31;;;;;;;4.10;3.80;;;13.40;25.40;;;;;;4905312;29;20459;-76
2021/04/30 00:35:59;;;;;;;4.50;4.10;;;13.30;25.40;;;;;;4907028;29;20996;-75
2021/04/30 00:38:26;;;;;;;4.37;4.03;;;13.30;25.40;;;;;;4902778;29;20530;-76
2021/04/30 00:40:53;;;;;;;4.80;4.30;;;13.30;24.60;;;;;;4904981;29;20471;-76
2021/04/30 00:43:21;;;;;;;4.47;4.07;;;13.30;25.50;;;;;;4906807;29;20480;-76
2021/04/30 00:45:52;;;;;;;4.77;4.40;;;13.30;24.90;;;;;;4907455;29;21064;-78
2021/04/30 00:48:20;;;;;;;4.87;4.23;;;13.30;24.70;;;;;;4901205;29;20496;-78
2021/04/30 00:50:48;;;;;;;4.83;4.53;;;13.30;24.40;;;;;;4896562;29;20503;-77
2021/04/30 00:53:16;;;;;;;4.33;4.00;;;13.40;24.20;;;;;;4907046;29;20467;-77
2021/04/30 00:55:43;;;;;;;4.97;4.50;;;13.30;23.40;;;;;;4902340;29;20484;-78
2021/04/30 00:58:10;;;;;;;4.50;4.10;;;13.30;23.70;;;;;;4898735;29;20473;-78
2021/04/30 01:00:38;;;;;;;5.23;4.10;;;13.30;23.50;;;;;;4899248;29;20481;-78
2021/04/30 01:03:10;;;;;;;5.00;4.60;;;13.40;23.00;;;;;;4898511;29;20845;-78
2021/04/30 01:05:38;;;;;;;4.97;3.83;;;13.30;23.70;;;;;;4899655;29;21026;-77
2021/04/30 01:08:06;;;;;;;4.33;3.90;;;13.30;24.60;;;;;;4900157;29;20887;-77
2021/04/30 01:10:33;;;;;;;6.30;4.63;;;13.30;24.60;;;;;;4889455;29;20517;-78
2021/04/30 01:13:01;;;;;;;7.00;5.10;;;13.20;25.00;;;;;;4918290;29;20470;-78
2021/04/30 01:15:28;;;;;;;6.50;5.20;;;13.30;23.80;;;;;;4922246;29;20547;-78
2021/04/30 01:17:55;;;;;;;4.80;4.40;;;13.30;24.00;;;;;;4911095;29;20541;-78
2021/04/30 01:24:14;;;;;;;5.13;4.50;;;13.20;22.60;;;;;;4889513;29;20466;-78
2021/04/30 01:26:43;;;;;;;4.60;4.20;;;13.10;22.00;;;;;;4895426;29;20475;-78
2021/04/30 01:29:11;;;;;;;4.63;4.23;;;13.10;21.70;;;;;;4900515;29;20547;-78
2021/04/30 01:31:38;;;;;;;5.07;4.50;;;13.10;23.10;;;;;;4895778;29;20583;-78
2021/04/30 01:34:05;;;;;;;4.57;4.17;;;13.10;21.80;;;;;;4898597;29;20614;-78
2021/04/30 01:36:33;;;;;;;5.30;4.80;;;13.10;21.40;;;;;;4892227;29;20873;-78
2021/04/30 01:39:05;;;;;;;4.97;4.47;;;13.10;19.50;;;;;;4898794;29;20493;-78
2021/04/30 01:41:34;;;;;;;5.70;5.20;;;13.00;20.00;;;;;;4893552;29;20455;-77
2021/04/30 01:44:01;;;;;;;4.97;4.50;;;13.10;19.80;;;;;;4891367;29;20490;-78
2021/04/30 01:46:29;;;;;;;5.33;4.90;;;13.00;19.70;;;;;;4900769;29;20473;-76
2021/04/30 01:48:56;;;;;;;6.30;5.70;;;13.00;17.80;;;;;;4916434;29;20487;-78
2021/04/30 01:51:23;;;;;;;5.13;4.63;;;12.90;16.60;;;;;;4906272;29;20463;-79
2021/04/30 01:53:50;;;;;;;6.03;5.53;;;12.90;16.90;;;;;;4893173;29;20516;-78
2021/04/30 01:56:17;;;;;;;6.00;4.77;;;12.90;16.30;;;;;;4898495;29;20466;-79
2021/04/30 01:58:45;;;;;;;5.40;4.53;;;13.00;17.40;;;;;;4900964;29;20490;-76
2021/04/30 02:01:12;;;;;;;6.10;5.50;;;13.00;17.80;;;;;;4893248;29;20469;-76
2021/04/30 02:03:40;;;;;;;4.90;4.50;;;13.00;18.10;;;;;;4887546;29;20458;-76
2021/04/30 02:06:07;;;;;;;7.50;5.20;;;13.00;17.10;;;;;;4889160;29;20549;-76
2021/04/30 02:08:34;;;;;;;5.93;5.33;;;13.00;16.10;;;;;;4899590;29;20490;-75
2021/04/30 02:11:03;;;;;;;5.70;5.20;;;12.90;17.60;;;;;;4889052;29;20474;-75
2021/04/30 02:13:30;;;;;;;5.93;5.40;;;12.90;17.50;;;;;;4901265;29;20465;-78
2021/04/30 02:15:58;;;;;;;6.20;4.93;;;12.90;18.30;;;;;;4908511;29;20473;-76
2021/04/30 02:18:26;;;;;;;10.27;7.13;;;12.80;20.70;;;;;;4896385;29;20467;-78
2021/04/30 02:20:53;;;;;;;6.10;4.70;;;12.80;20.80;;;;;;4897095;29;21076;-78
2021/04/30 02:23:21;;;;;;;5.63;5.13;;;12.90;25.40;;;;;;4888405;29;20460;-79
2021/04/30 02:25:49;;;;;;;7.37;6.77;;;12.90;26.10;;;;;;4894387;29;21438;-77
2021/04/30 02:28:16;;;;;;;6.10;5.47;;;12.90;29.00;;;;;;4893014;29;20471;-76
2021/04/30 02:30:44;;;;;;;8.10;5.70;;;12.80;30.20;;;;;;4893268;29;20831;-76
2021/04/30 02:33:12;;;;;;;6.60;5.90;;;12.90;28.20;;;;;;4902808;29;21302;-78
2021/04/30 02:35:42;;;;;;;6.80;6.10;;;12.80;28.50;;;;;;4893347;29;20534;-77
2021/04/30 02:38:10;;;;;;;6.57;5.97;;;12.80;27.90;;;;;;4899717;29;20459;-77
2021/04/30 02:40:39;;;;;;;5.33;4.73;;;12.80;29.20;;;;;;4900768;29;21318;-77
2021/04/30 02:43:08;;;;;;;6.80;6.20;;;12.70;27.90;;;;;;4884667;29;21413;-77
2021/04/30 02:45:36;;;;;;;6.43;5.83;;;12.70;28.50;;;;;;4887700;29;20522;-77
2021/04/30 02:48:11;;;;;;;6.97;5.50;;;12.70;29.40;;;;;;4892182;29;20976;-78
2021/04/30 02:50:41;;;;;;;7.80;5.80;;;12.60;29.20;;;;;;4884294;29;20507;-77
2021/04/30 02:53:09;;;;;;;7.50;6.60;;;12.50;28.90;;;;;;4884169;29;20473;-76
2021/04/30 02:55:36;;;;;;;5.73;5.23;;;12.50;32.40;;;;;;4893578;29;20526;-77
2021/04/30 02:58:03;;;;;;;6.60;5.50;;;12.50;30.50;;;;;;4890590;29;20472;-77
2021/04/30 03:00:31;;;;;;;7.00;5.80;;;12.50;29.30;;;;;;4888784;29;20474;-76
2021/04/30 03:03:00;;;;;;;5.73;5.10;;;12.40;44.50;;;;;;4900749;29;20483;-76
2021/04/30 03:05:27;;;;;;;6.63;5.93;;;12.40;31.20;;;;;;4888594;29;20494;-76
2021/04/30 03:07:55;;;;;;;5.77;5.30;;;12.40;31.50;;;;;;4906419;29;20471;-77
2021/04/30 03:10:22;;;;;;;6.57;5.97;;;12.40;32.70;;;;;;4899433;29;20494;-77
2021/04/30 03:12:51;;;;;;;6.97;6.27;;;12.40;31.00;;;;;;4885233;29;21058;-76
2021/04/30 03:15:18;;;;;;;6.63;6.03;;;12.30;32.00;;;;;;4889215;29;20468;-76
2021/04/30 03:17:48;;;;;;;7.07;6.37;;;12.40;37.00;;;;;;4888101;29;20489;-75
2021/04/30 03:20:18;;;;;;;6.70;6.00;;;12.30;34.90;;;;;;4894162;29;20483;-77
2021/04/30 03:22:46;;;;;;;34.00;14.57;;;12.30;37.90;;;;;;4892280;29;20472;-79
2021/04/30 03:25:14;;;;;;;54.70;23.30;;;12.40;52.40;;;;;;4901723;29;20529;-76
2021/04/30 03:27:42;;;;;;;21.53;11.83;;;12.30;36.40;;;;;;4885188;29;20459;-76
2021/04/30 03:30:19;;;;;;;13.77;9.90;;;12.40;36.30;;;;;;4882403;29;20616;-75
2021/04/30 03:32:52;;;;;;;14.57;9.37;;;12.40;33.40;;;;;;4886042;29;20477;-78
2021/04/30 03:35:20;;;;;;;7.57;6.50;;;12.40;31.60;;;;;;4887768;29;20492;-75
2021/04/30 03:37:53;;;;;;;7.63;6.70;;;12.40;34.10;;;;;;4894172;29;20517;-75
2021/04/30 03:40:21;;;;;;;8.60;7.70;;;12.40;33.70;;;;;;4886253;29;20478;-76
2021/04/30 03:42:48;;;;;;;7.50;6.40;;;12.40;33.00;;;;;;4895351;29;20473;-77
2021/04/30 03:45:15;;;;;;;7.63;6.70;;;12.40;35.20;;;;;;4884329;29;20475;-77
2021/04/30 03:47:43;;;;;;;6.90;5.83;;;12.40;33.20;;;;;;4890852;29;20827;-77
2021/04/30 03:50:11;;;;;;;9.47;7.30;;;12.50;32.30;;;;;;4893680;29;20539;-76
2021/04/30 03:52:38;;;;;;;8.43;6.70;;;12.40;33.60;;;;;;4883199;29;20465;-76
2021/04/30 03:55:06;;;;;;;7.73;6.13;;;12.40;35.10;;;;;;4892135;29;20482;-76
2021/04/30 03:57:34;;;;;;;7.00;6.40;;;12.40;36.80;;;;;;4889663;29;20458;-78
2021/04/30 04:00:01;;;;;;;6.67;5.90;;;12.40;40.10;;;;;;4883480;29;20489;-77
2021/04/30 04:02:29;;;;;;;9.60;8.60;;;12.40;40.50;;;;;;4889344;29;20982;-78
2021/04/30 04:04:56;;;;;;;8.50;7.70;;;12.40;39.40;;;;;;4894697;29;20483;-77
2021/04/30 04:07:23;;;;;;;8.47;7.67;;;12.30;38.40;;;;;;4896976;29;20470;-78
2021/04/30 04:09:50;;;;;;;9.33;7.00;;;12.40;38.80;;;;;;4898939;29;20502;-79
2021/04/30 04:12:17;;;;;;;8.50;7.10;;;12.40;42.00;;;;;;4893260;29;20474;-78
2021/04/30 04:14:45;;;;;;;9.17;6.90;;;12.30;41.80;;;;;;4893208;29;21772;-80
2021/04/30 04:17:15;;;;;;;8.03;7.27;;;12.30;41.30;;;;;;4894385;29;20480;-76
2021/04/30 04:19:53;;;;;;;7.33;6.40;;;12.30;40.50;;;;;;4888326;29;20595;-76
2021/04/30 04:22:21;;;;;;;10.23;8.50;;;12.30;38.70;;;;;;4884403;29;23091;-76
2021/04/30 04:24:48;;;;;;;15.13;9.70;;;12.20;36.90;;;;;;4903081;29;20499;-77
2021/04/30 04:27:16;;;;;;;8.70;7.70;;;12.20;37.60;;;;;;4886496;29;20477;-77
2021/04/30 04:29:43;;;;;;;10.60;8.63;;;12.20;40.40;;;;;;4884928;29;20483;-77
2021/04/30 04:32:11;;;;;;;11.77;7.97;;;12.20;43.20;;;;;;4901212;29;20474;-76
2021/04/30 04:34:39;;;;;;;9.50;8.50;;;12.20;40.60;;;;;;4885813;29;21868;-74
2021/04/30 04:37:07;;;;;;;10.30;8.50;;;12.20;37.30;;;;;;4906407;29;20838;-75
2021/04/30 04:39:34;;;;;;;10.00;8.03;;;12.20;37.30;;;;;;4886316;29;20589;-76
2021/04/30 04:42:03;;;;;;;10.13;7.50;;;12.20;36.70;;;;;;4900309;29;20467;-77
2021/04/30 04:44:32;;;;;;;8.43;7.60;;;12.30;37.90;;;;;;4890194;29;20501;-77
2021/04/30 04:47:00;;;;;;;10.90;8.33;;;12.30;39.50;;;;;;4886458;29;20564;-75
2021/04/30 04:49:28;;;;;;;8.80;7.67;;;12.20;36.40;;;;;;4891379;29;20495;-76
2021/04/30 04:51:55;;;;;;;9.63;7.87;;;12.20;33.70;;;;;;4884957;29;20466;-76
2021/04/30 04:54:22;;;;;;;10.40;8.20;;;12.20;33.00;;;;;;4880515;29;20830;-75
2021/04/30 04:56:49;;;;;;;11.23;8.57;;;12.30;33.20;;;;;;4887007;29;20462;-77
2021/04/30 04:59:16;;;;;;;9.97;8.43;;;12.20;31.80;;;;;;4887018;29;20547;-76
2021/04/30 05:01:43;;;;;;;11.63;8.87;;;12.30;33.60;;;;;;4889469;29;20481;-78
2021/04/30 05:04:13;;;;;;;12.03;9.03;;;12.10;28.80;;;;;;4882293;29;21008;-77
2021/04/30 05:06:41;;;;;;;10.00;9.00;;;11.80;28.10;;;;;;4893062;29;20579;-78
2021/04/30 05:09:08;;;;;;;7.67;7.03;;;12.20;31.10;;;;;;4894306;29;20508;-78
2021/04/30 05:11:36;;;;;;;10.50;8.70;;;12.30;29.20;;;;;;4890274;29;20476;-77
2021/04/30 05:14:03;;;;;;;9.20;8.20;;;12.30;29.20;;;;;;4893528;29;20464;-78
2021/04/30 05:16:30;;;;;;;9.23;7.60;;;12.30;28.50;;;;;;4888656;29;20473;-77
2021/04/30 05:18:57;;;;;;;8.20;7.40;;;12.30;29.30;;;;;;4910628;29;20503;-76
2021/04/30 05:21:25;;;;;;;10.30;9.10;;;12.30;30.50;;;;;;4885716;29;20476;-77
2021/04/30 05:23:56;;;;;;;12.40;9.23;;;12.30;30.40;;;;;;4884698;29;20472;-75
2021/04/30 05:26:24;;;;;;;10.20;8.17;;;12.20;30.50;;;;;;4888415;29;20955;-78
2021/04/30 05:28:51;;;;;;;8.83;7.93;;;12.20;31.00;;;;;;4900611;29;20490;-81
2021/04/30 05:31:18;;;;;;;10.17;8.03;;;12.20;31.20;;;;;;4889018;29;20497;-79
2021/04/30 05:33:45;;;;;;;10.03;8.33;;;12.30;31.70;;;;;;4892930;29;20999;-78
2021/04/30 05:36:13;;;;;;;9.67;8.70;;;12.30;32.50;;;;;;4891034;29;20500;-77
2021/04/30 05:38:40;;;;;;;8.90;8.10;;;12.30;31.20;;;;;;4896538;29;20498;-78
2021/04/30 05:41:12;;;;;;;9.10;7.50;;;12.30;31.30;;;;;;4898621;29;20471;-79
2021/04/30 05:43:40;;;;;;;9.70;7.67;;;12.30;31.70;;;;;;4900844;29;20520;-78
2021/04/30 05:46:07;;;;;;;11.37;8.10;;;12.30;31.70;;;;;;4900053;29;21028;-80
2021/04/30 05:48:34;;;;;;;9.30;7.50;;;12.30;30.50;;;;;;4901406;29;20479;-78
2021/04/30 05:51:01;;;;;;;8.00;7.20;;;12.30;31.70;;;;;;4895464;29;20470;-79
2021/04/30 05:53:28;;;;;;;7.87;6.90;;;12.30;32.50;;;;;;4893711;29;20985;-79
2021/04/30 05:55:55;;;;;;;9.87;6.60;;;12.30;31.70;;;;;;4909034;29;21253;-79
2021/04/30 05:58:24;;;;;;;8.47;6.40;;;12.30;30.40;;;;;;4885695;29;20471;-78
2021/04/30 06:00:51;;;;;;;8.67;7.87;;;12.30;31.40;;;;;;4886052;29;20460;-79
2021/04/30 06:03:19;;;;;;;9.50;6.50;;;12.30;30.90;;;;;;4886351;29;20472;-78
2021/04/30 06:05:46;;;;;;;9.50;8.00;;;12.30;31.20;;;;;;4882545;29;20606;-79
2021/04/30 06:08:13;;;;;;;9.10;7.93;;;12.30;30.40;;;;;;4885611;29;21077;-79
2021/04/30 06:10:40;;;;;;;6.90;6.30;;;12.30;32.30;;;;;;4884037;29;20471;-78
2021/04/30 06:13:07;;;;;;;8.53;7.00;;;12.40;32.00;;;;;;4890629;29;20579;-78
2021/04/30 06:15:35;;;;;;;7.70;6.70;;;12.40;31.40;;;;;;4882066;29;20475;-78
2021/04/30 06:18:03;;;;;;;6.90;6.00;;;12.40;30.80;;;;;;4894743;29;21017;-77
2021/04/30 06:20:30;;;;;;;8.40;7.60;;;12.30;29.90;;;;;;4896384;29;20492;-77
2021/04/30 06:22:57;;;;;;;10.67;7.90;;;12.40;31.60;;;;;;4891150;29;20468;-78
2021/04/30 06:25:24;;;;;;;8.83;7.30;;;12.40;30.30;;;;;;4891309;29;20861;-79
2021/04/30 06:27:53;;;;;;;12.70;7.93;;;12.40;30.20;;;;;;4889329;29;21037;-77
2021/04/30 06:30:20;;;;;;;8.57;6.90;;;12.40;29.30;;;;;;4892231;29;20485;-78
2021/04/30 06:32:49;;;;;;;9.03;7.90;;;12.40;29.50;;;;;;4885716;29;21050;-78
2021/04/30 06:35:16;;;;;;;6.90;6.30;;;12.50;29.50;;;;;;4884864;29;20464;-79
2021/04/30 06:37:43;;;;;;;9.10;7.33;;;12.50;29.70;;;;;;4885482;29;20555;-78
2021/04/30 06:40:11;;;;;;;8.53;7.67;;;12.50;43.10;;;;;;4883889;29;20496;-78
2021/04/30 06:42:39;;;;;;;7.90;7.03;;;12.50;29.70;;;;;;4882900;29;20468;-83
2021/04/30 06:45:08;;;;;;;7.67;6.30;;;12.50;31.70;;;;;;4895034;29;20540;-83
2021/04/30 06:47:36;;;;;;;7.67;6.87;;;12.50;32.10;;;;;;4900674;29;20466;-79
2021/04/30 06:50:06;;;;;;;8.60;7.70;;;12.50;29.70;;;;;;4896069;29;20489;-79
2021/04/30 06:52:33;;;;;;;8.80;7.17;;;12.50;28.90;;;;;;4898628;29;20462;-78
2021/04/30 06:55:00;;;;;;;8.97;7.87;;;12.40;29.50;;;;;;4899766;29;20532;-79
2021/04/30 06:57:39;;;;;;;8.10;7.30;;;12.50;34.30;;;;;;4902414;29;20472;-78
2021/04/30 07:00:09;;;;;;;8.80;7.90;;;12.40;29.10;;;;;;4896607;29;20518;-78
2021/04/30 07:02:36;;;;;;;8.77;7.80;;;12.40;29.10;;;;;;4904878;29;20467;-76
2021/04/30 07:05:06;;;;;;;9.50;7.43;;;12.40;28.50;;;;;;4904426;29;20888;-77
2021/04/30 07:07:34;;;;;;;8.23;7.47;;;12.40;28.60;;;;;;4904481;29;20968;-78
2021/04/30 07:10:01;;;;;;;7.93;7.23;;;12.40;27.00;;;;;;4897025;29;20484;-81
2021/04/30 07:12:28;;;;;;;7.83;6.73;;;12.40;27.30;;;;;;4903874;29;20474;-76
2021/04/30 07:14:55;;;;;;;8.83;7.77;;;12.40;28.30;;;;;;4902081;29;20935;-78
2021/04/30 07:17:22;;;;;;;9.13;7.07;;;12.30;27.80;;;;;;4899910;29;20466;-78
2021/04/30 07:19:49;;;;;;;8.73;7.83;;;12.50;29.60;;;;;;4897878;29;20496;-78
2021/04/30 07:22:18;;;;;;;10.50;7.77;;;12.50;29.70;;;;;;4900225;29;20465;-78
2021/04/30 07:24:46;;;;;;;10.23;7.87;;;12.50;29.00;;;;;;4893405;29;20472;-79
2021/04/30 07:27:17;;;;;;;8.13;6.80;;;12.50;30.00;;;;;;4896704;29;20504;-80
2021/04/30 07:29:45;;;;;;;8.43;7.10;;;12.50;30.00;;;;;;4896919;29;20487;-81
2021/04/30 07:32:12;;;;;;;9.83;7.93;;;12.60;28.90;;;;;;4902028;29;20480;-80
2021/04/30 07:34:40;;;;;;;9.50;7.10;;;12.60;29.00;;;;;;4894991;29;20485;-78
2021/04/30 07:37:08;;;;;;;9.93;8.30;;;12.50;29.00;;;;;;4909873;29;20482;-78
2021/04/30 07:39:36;;;;;;;9.17;7.50;;;12.60;29.40;;;;;;4893522;29;20488;-79
2021/04/30 07:42:05;;;;;;;7.57;6.80;;;12.60;29.70;;;;;;4898228;29;20496;-78
2021/04/30 07:44:33;;;;;;;8.57;7.67;;;12.60;30.30;;;;;;4896911;29;20897;-77
2021/04/30 07:47:01;;;;;;;10.70;8.40;;;12.60;29.90;;;;;;4899419;29;20487;-76
2021/04/30 07:49:29;;;;;;;10.10;7.50;;;12.50;30.30;;;;;;4896583;29;20497;-78
2021/04/30 07:51:56;;;;;;;8.60;7.63;;;12.60;30.10;;;;;;4897586;29;20535;-77
2021/04/30 07:54:24;;;;;;;8.60;7.67;;;12.60;30.60;;;;;;4898955;29;20472;-80
2021/04/30 07:56:58;;;;;;;8.80;7.60;;;12.70;33.40;;;;;;4903609;29;21132;-79
2021/04/30 07:59:25;;;;;;;7.93;7.13;;;12.70;30.00;;;;;;4902853;29;20485;-77
2021/04/30 08:01:52;;;;;;;10.07;6.47;;;12.70;31.10;;;;;;4901871;29;20474;-78
2021/04/30 08:04:19;;;;;;;7.10;6.40;;;12.60;30.00;;;;;;4903006;29;20468;-76
2021/04/30 08:06:46;;;;;;;7.40;6.70;;;12.60;29.60;;;;;;4898365;29;20562;-77
2021/04/30 08:09:14;;;;;;;8.10;7.30;;;12.60;28.80;;;;;;4902396;29;20498;-77
2021/04/30 08:11:41;;;;;;;8.40;7.60;;;12.50;28.50;;;;;;4900267;29;20465;-76
2021/04/30 08:14:09;;;;;;;7.50;6.67;;;12.50;29.40;;;;;;4903219;29;20472;-77
2021/04/30 08:16:37;;;;;;;6.97;6.33;;;12.60;29.80;;;;;;4901081;29;20710;-78
2021/04/30 08:19:05;;;;;;;8.23;6.60;;;12.50;26.70;;;;;;4902395;29;20537;-77
2021/04/30 08:21:33;;;;;;;7.50;6.80;;;12.50;27.80;;;;;;4902004;29;20477;-76
2021/04/30 08:24:00;;;;;;;7.03;6.33;;;12.50;27.90;;;;;;4904831;29;20476;-77
2021/04/30 08:26:30;;;;;;;7.63;6.70;;;12.60;28.80;;;;;;4903390;29;20490;-73
2021/04/30 08:28:58;;;;;;;8.20;6.83;;;12.70;28.20;;;;;;4903854;29;20499;-74
2021/04/30 08:31:27;;;;;;;7.47;6.77;;;12.70;27.60;;;;;;4903694;29;20467;-76
2021/04/30 08:33:55;;;;;;;8.17;6.50;;;12.70;27.80;;;;;;4906325;29;20554;-74
2021/04/30 08:36:22;;;;;;;11.47;6.20;;;12.70;28.80;;;;;;4901868;29;20475;-75
2021/04/30 08:38:49;;;;;;;7.80;6.70;;;12.70;28.60;;;;;;4902891;29;20538;-75
2021/04/30 08:41:18;;;;;;;9.30;6.67;;;12.70;31.00;;;;;;4901274;29;20757;-75
2021/04/30 08:43:47;;;;;;;10.30;7.83;;;12.80;31.10;;;;;;4917200;29;20463;-74
2021/04/30 08:46:14;;;;;;;9.23;7.50;;;12.80;31.20;;;;;;4900169;29;20483;-74
2021/04/30 08:48:43;;;;;;;31.80;16.00;;;12.90;33.40;;;;;;4909955;29;20488;-76
2021/04/30 08:51:11;;;;;;;10.27;7.57;;;13.00;33.50;;;;;;4896205;29;20453;-77
2021/04/30 08:53:40;;;;;;;8.33;7.20;;;13.00;32.90;;;;;;4898612;29;20469;-74
2021/04/30 08:56:07;;;;;;;8.20;6.80;;;13.00;33.70;;;;;;4900704;29;21045;-75
2021/04/30 08:58:36;;;;;;;7.73;6.93;;;12.60;32.70;;;;;;4898989;29;20470;-73
2021/04/30 09:01:05;;;;;;;11.02;7.88;;;12.90;32.60;;;;;;4898379;29;20551;-76
2021/04/30 09:03:34;;;;;;;10.33;8.20;;;12.90;32.90;;;;;;4898436;29;20672;-75
2021/04/30 09:06:03;;;;;;;8.57;7.23;;;12.80;30.00;;;;;;4898541;29;20491;-76
2021/04/30 09:08:45;;;;;;;10.43;8.30;;;12.80;44.50;;;;;;4896812;29;20480;-75
2021/04/30 09:11:29;;;;;;;9.73;7.60;;;12.70;30.80;;;;;;4900363;29;21041;-75
2021/04/30 09:14:18;;;;;;;9.80;7.90;;;12.80;32.80;;;;;;4900151;29;20484;-76
2021/04/30 09:17:09;;;;;;;9.97;6.77;;;12.70;31.00;;;;;;4899166;29;20571;-75
2021/04/30 09:19:44;;;;;;;8.87;7.97;;;12.80;33.00;;;;;;4911440;29;21110;-76
2021/04/30 09:22:12;;;;;;;9.10;7.80;;;12.70;37.50;;;;;;4901195;29;20464;-77
2021/04/30 09:24:40;;;;;;;8.03;7.23;;;12.60;30.20;;;;;;4898263;29;20455;-78
2021/04/30 09:27:08;;;;;;;9.47;7.43;;;12.50;31.00;;;;;;4911996;29;20490;-76
2021/04/30 09:29:37;;;;;;;8.80;7.63;;;12.60;32.30;;;;;;4895593;29;21117;-74
2021/04/30 09:32:11;;;;;;;7.87;6.93;;;12.60;32.50;;;;;;4899043;29;20522;-77
2021/04/30 09:34:41;;;;;;;8.87;7.50;;;12.60;32.50;;;;;;4900045;29;20550;-77
2021/04/30 09:37:10;;;;;;;8.67;7.77;;;12.60;34.20;;;;;;4901208;29;20525;-74
2021/04/30 09:39:54;;;;;;;6.47;5.77;;;12.60;32.30;;;;;;4899218;29;20486;-76
2021/04/30 09:42:24;;;;;;;8.70;7.57;;;12.60;32.00;;;;;;4898350;29;21091;-77
2021/04/30 09:44:52;;;;;;;11.70;8.83;;;12.60;33.20;;;;;;4897761;29;20545;-76
2021/04/30 09:47:22;;;;;;;12.63;8.27;;;12.60;34.20;;;;;;4905299;29;21019;-77
2021/04/30 09:49:54;;;;;;;9.13;8.20;;;12.70;34.20;;;;;;4895494;29;20538;-77
2021/04/30 09:52:22;;;;;;;9.77;7.87;;;12.70;34.30;;;;;;4900383;29;20503;-75
2021/04/30 09:54:52;;;;;;;9.30;6.80;;;12.70;36.10;;;;;;4893802;29;20598;-77
2021/04/30 09:57:22;;;;;;;8.03;7.23;;;12.80;36.40;;;;;;4899544;29;20477;-78
2021/04/30 09:59:55;;;;;;;11.20;7.77;;;12.80;36.50;;;;;;4894937;29;20491;-78
2021/04/30 10:02:23;;;;;;;13.20;8.43;;;12.80;36.50;;;;;;4896071;29;20467;-77
2021/04/30 10:04:52;;;;;;;8.23;6.70;;;12.90;39.30;;;;;;4900084;29;20507;-77
2021/04/30 10:07:30;;;;;;;11.80;9.27;;;12.90;38.40;;;;;;4900058;29;20483;-75
2021/04/30 10:10:06;;;;;;;11.27;8.90;;;12.90;38.30;;;;;;4901097;29;20497;-77
2021/04/30 10:12:34;;;;;;;8.83;7.97;;;12.90;40.80;;;;;;4900565;29;20534;-77
2021/04/30 10:15:03;;;;;;;9.03;8.20;;;12.80;42.20;;;;;;4899232;29;20543;-78
2021/04/30 10:17:30;;;;;;;8.70;7.80;;;12.80;42.80;;;;;;4897067;29;20467;-74
2021/04/30 10:19:57;;;;;;;13.03;8.30;;;12.90;49.70;;;;;;4898536;29;20509;-77
2021/04/30 10:22:25;;;;;;;12.43;8.10;;;12.90;45.50;;;;;;4897931;29;20517;-75
2021/04/30 10:25:17;;;;;;;9.53;7.63;;;12.80;43.60;;;;;;4898407;29;20476;-77
2021/04/30 10:27:46;;;;;;;10.07;7.90;;;12.80;43.70;;;;;;4896575;29;20497;-78
2021/04/30 10:30:27;;;;;;;8.93;7.47;;;12.70;46.40;;;;;;4895506;29;20506;-78
2021/04/30 10:33:02;;;;;;;9.33;7.60;;;12.60;47.90;;;;;;4898404;29;20501;-76
2021/04/30 10:35:34;;;;;;;10.50;7.67;;;12.50;46.60;;;;;;4900258;29;20477;-77
2021/04/30 10:38:05;;;;;;;19.60;11.57;;;12.50;47.10;;;;;;4900877;29;20520;-78
2021/04/30 10:40:33;;;;;;;11.23;8.50;;;12.50;48.30;;;;;;4899771;29;20488;-76
2021/04/30 10:43:19;;;;;;;10.43;8.53;;;12.50;53.10;;;;;;4897923;29;20570;-76
2021/04/30 10:46:08;;;;;;;10.63;8.60;;;12.40;54.40;;;;;;4899047;29;20471;-78
2021/04/30 10:48:40;;;;;;;10.00;8.73;;;12.30;57.40;;;;;;4895827;29;20975;-78
2021/04/30 10:51:14;;;;;;;9.93;8.60;;;12.20;65.00;;;;;;4898095;29;20500;-78
2021/04/30 10:53:43;;;;;;;10.63;9.60;;;12.20;69.10;;;;;;4895865;29;20979;-79
2021/04/30 10:56:31;;;;;;;10.53;8.60;;;12.20;73.30;;;;;;4899332;29;20801;-78
2021/04/30 10:58:58;;;;;;;9.97;8.67;;;12.20;72.80;;;;;;4893765;29;20507;-81
2021/04/30 11:01:28;;;;;;;10.30;8.87;;;12.10;76.60;;;;;;4895455;29;21296;-79
2021/04/30 11:04:16;;;;;;;11.33;10.13;;;12.10;77.30;;;;;;4897420;29;20462;-79
2021/04/30 11:06:46;;;;;;;10.30;9.20;;;12.00;81.40;;;;;;4895213;29;21199;-77
2021/04/30 11:09:16;;;;;;;10.50;9.03;;;11.90;84.40;;;;;;4895812;29;21004;-76
2021/04/30 11:11:45;;;;;;;12.90;9.63;;;11.90;92.00;;;;;;4897706;29;20806;-78
2021/04/30 11:14:27;;;;;;;10.23;9.23;;;12.00;94.50;;;;;;4896817;29;20478;-77
2021/04/30 11:16:56;;;;;;;12.63;10.10;;;12.00;96.50;;;;;;4910931;29;20465;-78
2021/04/30 11:19:24;;;;;;;11.77;9.63;;;11.90;97.30;;;;;;4900107;29;20834;-78
2021/04/30 11:21:53;;;;;;;13.00;10.33;;;11.90;99.90;;;;;;4903092;29;20992;-78
2021/04/30 11:24:41;;;;;;;10.97;9.17;;;11.90;97.00;;;;;;4897197;29;20471;-76
2021/04/30 11:27:34;;;;;;;23.70;14.03;;;11.90;97.20;;;;;;4898206;29;21014;-77
2021/04/30 11:30:22;;;;;;;13.90;10.00;;;12.00;99.90;;;;;;4896442;29;20823;-76
2021/04/30 11:32:51;;;;;;;11.30;9.27;;;11.90;99.90;;;;;;4897240;29;20474;-77
2021/04/30 11:35:19;;;;;;;12.50;10.00;;;12.00;99.60;;;;;;4894211;29;20528;-80
2021/04/30 11:37:48;;;;;;;12.27;10.40;;;12.00;99.90;;;;;;4896338;29;20559;-77
2021/04/30 11:40:23;;;;;;;12.50;9.77;;;11.90;99.90;;;;;;4897369;29;20511;-78
2021/04/30 11:43:06;;;;;;;11.50;8.87;;;11.80;99.90;;;;;;4903702;29;20465;-79
2021/04/30 11:45:36;;;;;;;9.50;8.50;;;11.70;99.90;;;;;;4899136;29;20521;-76
2021/04/30 11:48:04;;;;;;;14.63;8.63;;;11.70;99.90;;;;;;4898936;29;20524;-74
2021/04/30 11:50:33;;;;;;;8.70;7.47;;;11.70;99.90;;;;;;4915588;29;20628;-76
2021/04/30 11:53:00;;;;;;;11.83;8.73;;;11.80;99.90;;;;;;4898357;29;20494;-77
2021/04/30 11:55:27;;;;;;;11.57;9.23;;;11.80;99.90;;;;;;4891669;29;20486;-75
2021/04/30 11:57:59;;;;;;;10.80;8.80;;;11.80;99.90;;;;;;4895377;29;21022;-75
2021/04/30 12:00:28;;;;;;;11.47;9.17;;;11.70;99.90;;;;;;4914515;29;20547;-75
2021/04/30 12:03:00;;;;;;;9.90;8.90;;;11.70;99.90;;;;;;4900919;29;20525;-75
2021/04/30 12:05:28;;;;;;;10.10;8.83;;;11.80;99.90;;;;;;4903442;29;20459;-76
2021/04/30 12:07:56;;;;;;;10.70;8.70;;;11.60;99.90;;;;;;4899408;29;20713;-76
2021/04/30 12:10:28;;;;;;;9.90;8.90;;;11.50;99.90;;;;;;4895175;29;20490;-76
2021/04/30 12:12:56;;;;;;;9.10;8.20;;;11.40;99.90;;;;;;4901281;29;21167;-76
2021/04/30 12:15:31;;;;;;;30.63;17.00;;;11.50;99.90;;;;;;4897722;29;20475;-76
2021/04/30 12:17:58;;;;;;;11.80;8.50;;;11.50;99.90;;;;;;4894867;29;20466;-78
2021/04/30 12:20:27;;;;;;;9.87;7.97;;;11.60;99.90;;;;;;4891904;29;20497;-77
2021/04/30 12:22:57;;;;;;;10.40;7.80;;;11.70;99.90;;;;;;4898795;29;20471;-76
2021/04/30 12:25:30;;;;;;;8.37;6.73;;;11.60;99.90;;;;;;4893123;29;20470;-76
2021/04/30 12:28:23;;;;;;;8.63;7.10;;;11.60;99.90;;;;;;4894858;29;20493;-77
2021/04/30 12:30:53;;;;;;;9.10;7.37;;;11.50;99.90;;;;;;4894283;29;20973;-76
2021/04/30 12:33:33;;;;;;;8.37;7.57;;;11.50;99.90;;;;;;4898295;29;20459;-77
2021/04/30 12:36:04;;;;;;;7.67;6.87;;;11.50;99.90;;;;;;4900228;29;20524;-76
2021/04/30 12:38:32;;;;;;;8.37;7.57;;;11.50;99.90;;;;;;4895082;29;20654;-78
2021/04/30 12:41:10;;;;;;;9.53;7.07;;;11.60;99.90;;;;;;4904198;29;20475;-76
2021/04/30 12:43:39;;;;;;;10.47;7.70;;;11.40;99.90;;;;;;4898424;29;20490;-75
2021/04/30 12:46:12;;;;;;;7.77;6.97;;;11.50;99.90;;;;;;4896924;29;20478;-78
2021/04/30 12:48:42;;;;;;;8.47;7.07;;;11.50;99.90;;;;;;4897731;29;20484;-74
2021/04/30 12:51:09;;;;;;;9.50;6.50;;;11.50;99.90;;;;;;4898996;29;20980;-74
2021/04/30 12:53:40;;;;;;;9.23;7.07;;;11.40;99.90;;;;;;4896718;29;20465;-75
2021/04/30 12:56:09;;;;;;;9.53;7.33;;;11.60;99.90;;;;;;4902693;29;20466;-74
2021/04/30 12:58:40;;;;;;;7.33;6.27;;;11.60;99.90;;;;;;4903060;29;20889;-77